Time;durP1;ratioP1;P1;durP2;ratioP2;P2;SDS_P1;SDS_P2;PMS_P1;PMS_P2;Temp;Humidity;BMP_temperature;BMP_pressure;BME280_temperature;BME280_humidity;BME280_pressure;Samples;Min_cycle;Max_cycle;Signal;HPM_P1;HPM_P2
2021/10/10 00:01:37;;;;;;;7.97;4.95;;;;;;;13.41;60.41;99268.72;5018659;28;20464;-58
2021/10/10 00:04:02;;;;;;;10.52;5.57;;;;;;;13.43;60.03;99255.53;5013257;28;20017;-59
2021/10/10 00:06:28;;;;;;;9.50;4.90;;;;;;;13.44;59.62;99260.59;4997639;28;20163;-59
2021/10/10 00:08:53;;;;;;;9.20;5.50;;;;;;;13.28;59.07;99221.22;5016469;28;20041;-59
2021/10/10 00:11:19;;;;;;;13.32;5.28;;;;;;;13.45;59.02;99264.88;5015565;28;20662;-59
2021/10/10 00:13:45;;;;;;;8.90;4.68;;;;;;;13.37;58.65;99267.38;5014244;28;20548;-59
2021/10/10 00:16:10;;;;;;;10.63;5.20;;;;;;;13.56;58.33;99266.47;5012229;28;20029;-58
2021/10/10 00:18:35;;;;;;;12.23;4.95;;;;;;;13.28;58.51;99218.59;5016391;28;20025;-59
2021/10/10 00:21:01;;;;;;;9.20;5.00;;;;;;;13.44;58.41;99255.38;5015139;28;20040;-58
2021/10/10 00:23:26;;;;;;;9.65;4.90;;;;;;;13.15;58.27;99215.53;4998151;28;20486;-58
2021/10/10 00:25:51;;;;;;;14.93;5.45;;;;;;;13.36;58.35;99255.31;5020468;28;20037;-58
2021/10/10 00:28:17;;;;;;;10.82;5.00;;;;;;;13.36;59.01;99249.25;4991154;28;20862;-59
2021/10/10 00:30:42;;;;;;;8.68;4.70;;;;;;;13.20;58.01;99198.47;5021564;28;20033;-59
2021/10/10 00:33:08;;;;;;;11.50;4.80;;;;;;;13.19;55.41;99209.84;5020024;28;20040;-59
2021/10/10 00:35:34;;;;;;;8.95;4.88;;;;;;;13.46;54.57;99239.56;5021088;28;20037;-59
2021/10/10 00:38:01;;;;;;;13.82;4.82;;;;;;;13.45;55.29;99219.63;5022651;28;20786;-59
2021/10/10 00:40:27;;;;;;;12.38;5.57;;;;;;;13.44;56.52;99246.72;5001945;28;20044;-59
2021/10/10 00:42:52;;;;;;;9.48;4.93;;;;;;;13.20;57.04;99188.03;5019786;28;20484;-59
2021/10/10 00:45:17;;;;;;;12.50;4.80;;;;;;;13.52;57.18;99235.53;5019522;28;20130;-58
2021/10/10 00:47:43;;;;;;;9.52;4.68;;;;;;;13.44;57.57;99236.28;5022688;28;20112;-58
2021/10/10 00:50:09;;;;;;;10.35;5.00;;;;;;;13.36;58.18;99238.78;5026094;28;20468;-59
2021/10/10 00:52:40;;;;;;;9.57;4.60;;;;;;;13.41;57.90;99233.94;5022769;28;20033;-59
2021/10/10 00:55:06;;;;;;;10.65;5.20;;;;;;;12.89;57.43;99159.63;5017926;28;20380;-59
2021/10/10 00:57:31;;;;;;;12.85;5.20;;;;;;;13.37;57.47;99227.38;5019258;28;20083;-59
2021/10/10 00:59:58;;;;;;;13.57;5.38;;;;;;;13.41;58.30;99233.94;5025802;28;20507;-59
2021/10/10 01:02:23;;;;;;;12.27;4.97;;;;;;;13.48;57.83;99232.41;4999635;28;20033;-58
2021/10/10 01:04:48;;;;;;;12.25;5.20;;;;;;;13.06;57.58;99185.91;5020278;28;20471;-58
2021/10/10 01:07:14;;;;;;;13.88;5.05;;;;;;;13.35;57.34;99227.53;5023685;28;20086;-59
2021/10/10 01:09:39;;;;;;;10.52;5.05;;;;;;;12.95;57.70;99181.69;5020609;28;20316;-59
2021/10/10 01:12:06;;;;;;;10.48;5.18;;;;;;;13.22;57.91;99233.06;5017277;28;20029;-58
2021/10/10 01:14:33;;;;;;;7.88;4.60;;;;;;;13.28;58.75;99221.22;5001836;28;20468;-59
2021/10/10 01:16:59;;;;;;;9.85;4.47;;;;;;;13.13;58.92;99181.75;5020130;28;20445;-58
2021/10/10 01:19:27;;;;;;;12.20;4.90;;;;;;;12.92;60.10;99178.56;5017649;28;20030;-59
2021/10/10 01:21:59;;;;;;;8.88;4.88;;;;;;;13.23;59.32;99206.00;4994345;28;20022;-59
2021/10/10 01:24:25;;;;;;;11.15;5.40;;;;;;;13.42;59.23;99220.75;4991197;28;20818;-59
2021/10/10 01:26:50;;;;;;;12.70;5.30;;;;;;;13.29;59.49;99207.22;5023686;28;20152;-59
2021/10/10 01:29:15;;;;;;;10.10;5.18;;;;;;;13.31;59.52;99209.72;5019428;28;20765;-60
2021/10/10 01:31:41;;;;;;;9.95;5.53;;;;;;;13.22;59.58;99206.97;4997653;28;20035;-59
2021/10/10 01:34:06;;;;;;;9.80;4.70;;;;;;;13.27;58.89;99214.38;5013942;28;20041;-58
2021/10/10 01:36:34;;;;;;;10.70;5.05;;;;;;;13.29;58.74;99212.44;5004417;28;20040;-59
2021/10/10 01:38:59;;;;;;;11.02;4.95;;;;;;;13.23;58.46;99198.19;5005845;28;20537;-59
2021/10/10 01:41:25;;;;;;;12.15;5.40;;;;;;;12.93;58.67;99154.94;5009278;28;20041;-58
2021/10/10 01:43:50;;;;;;;9.82;5.13;;;;;;;13.16;58.69;99196.28;5033028;28;20502;-59
2021/10/10 01:46:15;;;;;;;10.82;5.20;;;;;;;13.12;58.67;99189.72;4998914;28;20037;-59
2021/10/10 01:48:41;;;;;;;12.50;5.30;;;;;;;13.15;58.62;99185.03;5006062;28;20026;-59
2021/10/10 01:51:06;;;;;;;12.50;5.10;;;;;;;13.19;58.72;99194.19;5023417;28;20048;-59
2021/10/10 01:53:32;;;;;;;10.43;4.97;;;;;;;13.16;58.72;99184.06;5022618;28;20467;-59
2021/10/10 01:55:58;;;;;;;9.77;5.50;;;;;;;13.07;59.12;99179.72;5018611;28;20044;-58
2021/10/10 01:58:23;;;;;;;10.48;5.35;;;;;;;13.00;59.86;99152.56;5018676;28;20041;-59
2021/10/10 02:00:49;;;;;;;10.23;5.30;;;;;;;13.12;59.94;99158.38;5021082;28;20045;-59
2021/10/10 02:03:14;;;;;;;12.77;5.72;;;;;;;12.75;60.67;99125.38;5014328;28;20025;-58
2021/10/10 02:05:39;;;;;;;10.90;4.95;;;;;;;12.99;61.26;99162.16;5006558;28;20025;-58
2021/10/10 02:08:05;;;;;;;10.98;5.20;;;;;;;13.11;60.61;99172.41;5011485;28;20080;-59
2021/10/10 02:10:30;;;;;;;10.63;5.25;;;;;;;12.85;60.15;99134.78;5008361;28;20108;-59
2021/10/10 02:12:56;;;;;;;9.88;5.25;;;;;;;13.12;59.79;99150.56;5023715;28;20037;-59
2021/10/10 02:15:21;;;;;;;8.75;5.53;;;;;;;13.03;59.68;99155.69;5001680;28;20471;-59
2021/10/10 02:17:46;;;;;;;10.82;5.38;;;;;;;12.98;60.00;99149.28;5022164;28;20456;-59
2021/10/10 02:20:12;;;;;;;11.13;5.68;;;;;;;12.83;60.42;99109.78;5014311;28;20037;-59
2021/10/10 02:22:38;;;;;;;9.40;4.97;;;;;;;13.09;61.01;99162.13;5017962;28;20017;-58
2021/10/10 02:25:04;;;;;;;8.90;5.22;;;;;;;13.10;60.85;99155.09;5018184;28;20034;-59
2021/10/10 02:27:30;;;;;;;11.90;5.57;;;;;;;12.99;61.23;99149.09;5016740;28;20029;-59
2021/10/10 02:29:55;;;;;;;11.10;5.45;;;;;;;13.08;60.81;99145.63;5014140;28;20091;-59
2021/10/10 02:32:20;;;;;;;12.63;5.78;;;;;;;12.78;60.75;99109.44;4996429;28;20495;-59
2021/10/10 02:34:46;;;;;;;10.48;5.68;;;;;;;13.14;61.20;99151.22;5029623;28;20087;-59
2021/10/10 02:37:12;;;;;;;9.52;5.13;;;;;;;13.03;60.78;99131.38;5028220;28;20112;-58
2021/10/10 02:39:37;;;;;;;9.45;5.38;;;;;;;13.24;60.21;99155.41;5015098;28;20451;-58
2021/10/10 02:42:04;;;;;;;10.55;5.28;;;;;;;13.06;60.28;99149.34;5010975;28;20089;-58
2021/10/10 02:44:29;;;;;;;10.75;5.72;;;;;;;12.97;60.71;99126.75;5020841;28;20116;-59
2021/10/10 02:46:55;;;;;;;11.63;5.68;;;;;;;13.02;60.62;99127.13;5027330;28;20037;-58
2021/10/10 02:49:20;;;;;;;11.23;5.72;;;;;;;13.01;61.32;99144.56;5026553;28;20041;-59
2021/10/10 02:51:46;;;;;;;10.57;5.32;;;;;;;13.00;61.51;99140.31;5018778;28;20025;-59
2021/10/10 02:54:11;;;;;;;14.15;6.07;;;;;;;13.04;61.26;99136.44;5017313;28;20037;-58
2021/10/10 02:56:37;;;;;;;10.48;5.63;;;;;;;12.84;60.88;99098.41;5030645;28;20032;-58
2021/10/10 02:59:02;;;;;;;8.98;5.20;;;;;;;12.89;60.49;99107.41;5021660;28;20025;-59
2021/10/10 03:01:27;;;;;;;9.23;5.43;;;;;;;13.05;60.49;99137.25;5021810;28;20042;-59
2021/10/10 03:03:53;;;;;;;11.63;5.72;;;;;;;12.92;59.78;99132.41;5026704;28;20553;-59
2021/10/10 03:06:18;;;;;;;12.32;5.45;;;;;;;13.02;59.58;99133.16;5018575;28;20114;-59
2021/10/10 03:08:43;;;;;;;12.57;5.70;;;;;;;13.05;60.38;99129.41;5023673;28;20072;-59
2021/10/10 03:11:09;;;;;;;9.77;5.45;;;;;;;12.94;60.61;99129.63;5022795;28;20438;-59
2021/10/10 03:13:35;;;;;;;13.80;5.47;;;;;;;13.02;61.04;99137.56;5029944;28;20026;-59
2021/10/10 03:16:00;;;;;;;13.48;5.88;;;;;;;12.75;59.19;99084.44;5017928;28;20380;-59
2021/10/10 03:18:26;;;;;;;11.75;5.40;;;;;;;13.01;58.81;99122.88;5024121;28;20060;-58
2021/10/10 03:20:52;;;;;;;12.32;5.85;;;;;;;12.89;59.97;99115.25;5024315;28;20496;-58
2021/10/10 03:23:17;;;;;;;11.18;5.65;;;;;;;12.90;60.21;99121.28;5016416;28;20061;-59
2021/10/10 03:25:43;;;;;;;14.15;6.07;;;;;;;12.61;59.17;99087.53;5026552;28;20056;-59
2021/10/10 03:28:08;;;;;;;13.70;5.82;;;;;;;12.65;58.91;99122.81;5017198;28;20112;-59
2021/10/10 03:30:34;;;;;;;12.20;5.70;;;;;;;12.39;59.95;99070.50;5018599;28;20117;-59
2021/10/10 03:32:59;;;;;;;9.93;5.20;;;;;;;12.77;60.52;99118.22;5021175;28;20040;-58
2021/10/10 03:35:24;;;;;;;10.45;5.70;;;;;;;12.58;59.63;99109.53;5022405;28;20049;-58
2021/10/10 03:37:50;;;;;;;11.68;5.50;;;;;;;12.41;60.20;99123.31;5010001;28;20514;-59
2021/10/10 03:40:15;;;;;;;12.63;5.80;;;;;;;12.20;59.83;99067.00;4986081;28;20186;-58
2021/10/10 03:42:41;;;;;;;13.52;6.70;;;;;;;12.50;60.03;99123.31;5028194;28;20047;-59
2021/10/10 03:45:08;;;;;;;10.15;5.57;;;;;;;12.30;59.17;99086.06;5025852;28;20033;-58
2021/10/10 03:47:33;;;;;;;11.55;5.28;;;;;;;12.45;60.34;99115.09;5033226;28;20407;-59
2021/10/10 03:49:59;;;;;;;14.30;5.78;;;;;;;12.30;61.42;99074.78;5014943;28;20033;-59
2021/10/10 03:52:25;;;;;;;11.23;5.28;;;;;;;12.56;59.89;99121.06;5022012;28;20041;-59
2021/10/10 03:57:25;;;;;;;13.63;6.00;;;;;;;12.71;59.86;99118.81;5017397;28;20099;-58
2021/10/10 03:59:59;;;;;;;14.23;5.68;;;;;;;12.66;59.39;99108.78;5015550;28;20034;-58
2021/10/10 04:02:25;;;;;;;13.00;5.25;;;;;;;12.65;60.21;99115.00;5016589;28;20080;-59
2021/10/10 04:04:54;;;;;;;12.77;5.40;;;;;;;12.71;60.19;99110.97;5018075;28;20026;-59
2021/10/10 04:07:20;;;;;;;13.63;5.67;;;;;;;12.54;60.57;99071.66;5015345;28;20048;-58
2021/10/10 04:09:46;;;;;;;12.50;5.75;;;;;;;12.80;61.59;99108.31;5023931;28;20117;-59
2021/10/10 04:12:11;;;;;;;15.65;5.57;;;;;;;12.77;61.07;99107.78;5024810;28;20116;-59
2021/10/10 04:14:37;;;;;;;12.98;5.53;;;;;;;12.82;60.96;99113.38;5021539;28;20478;-59
2021/10/10 04:17:02;;;;;;;13.82;5.88;;;;;;;12.62;62.15;99102.22;5023324;28;20029;-59
2021/10/10 04:19:28;;;;;;;12.35;6.00;;;;;;;12.72;61.53;99110.81;5018587;28;20032;-58
2021/10/10 04:21:53;;;;;;;10.40;5.47;;;;;;;12.50;61.72;99068.53;5028629;28;20071;-58
2021/10/10 04:24:19;;;;;;;12.68;5.72;;;;;;;12.83;61.38;99118.47;5013482;28;20080;-59
2021/10/10 04:26:44;;;;;;;12.65;5.65;;;;;;;12.78;62.10;99105.03;5021415;28;20108;-58
2021/10/10 04:29:10;;;;;;;12.07;5.78;;;;;;;12.74;62.10;99108.06;5021577;28;20029;-58
2021/10/10 04:31:35;;;;;;;14.63;5.82;;;;;;;12.77;61.97;99105.16;5020011;28;20048;-59
2021/10/10 04:34:01;;;;;;;12.00;5.15;;;;;;;12.73;62.17;99093.38;5020889;28;20025;-59
2021/10/10 04:36:26;;;;;;;13.05;5.53;;;;;;;12.81;62.45;99099.53;5025318;28;20091;-58
2021/10/10 04:38:51;;;;;;;12.75;6.03;;;;;;;12.74;63.17;99093.25;5003956;28;20120;-58
2021/10/10 04:41:17;;;;;;;10.68;5.35;;;;;;;12.76;64.00;99104.34;5016797;28;20435;-58
2021/10/10 04:43:42;;;;;;;9.88;5.47;;;;;;;12.77;63.93;99099.94;5004724;28;20037;-59
2021/10/10 04:46:08;;;;;;;10.80;6.22;;;;;;;12.77;64.11;99098.16;5024913;28;20040;-59
2021/10/10 04:48:33;;;;;;;11.57;6.03;;;;;;;12.69;64.16;99095.47;5028927;28;20037;-57
2021/10/10 04:50:59;;;;;;;14.25;6.00;;;;;;;12.74;64.58;99093.25;5007355;28;20850;-59
2021/10/10 04:53:24;;;;;;;10.93;6.13;;;;;;;12.79;64.03;99093.59;4995981;28;20400;-59
2021/10/10 04:55:50;;;;;;;11.35;5.72;;;;;;;12.75;64.05;99096.66;5031162;28;20079;-59
2021/10/10 04:58:15;;;;;;;15.48;5.85;;;;;;;12.84;63.25;99087.94;5002014;28;20052;-59
2021/10/10 05:00:40;;;;;;;15.00;6.13;;;;;;;12.78;63.49;99094.59;5004340;28;20037;-59
2021/10/10 05:03:06;;;;;;;11.07;5.80;;;;;;;12.74;63.71;99098.47;5007583;28;20032;-58
2021/10/10 05:05:31;;;;;;;11.00;5.82;;;;;;;12.71;63.89;99098.75;5018110;28;20037;-59
2021/10/10 05:07:57;;;;;;;11.80;5.93;;;;;;;12.35;64.06;99046.50;5019976;28;20056;-58
2021/10/10 05:10:22;;;;;;;12.00;5.50;;;;;;;12.65;63.50;99097.53;5027996;28;20036;-59
2021/10/10 05:12:47;;;;;;;14.45;5.93;;;;;;;12.60;63.69;99098.94;5019230;28;20029;-58
2021/10/10 05:15:13;;;;;;;10.32;5.65;;;;;;;12.67;63.80;99092.19;5017199;28;20034;-58
2021/10/10 05:17:38;;;;;;;12.18;5.40;;;;;;;12.52;63.35;99086.63;5027342;28;20128;-58
2021/10/10 05:20:04;;;;;;;13.05;5.38;;;;;;;12.45;63.36;99080.38;5003425;28;20568;-58
2021/10/10 05:22:30;;;;;;;11.70;5.95;;;;;;;12.44;63.81;99079.53;5003265;28;20037;-59
2021/10/10 05:24:58;;;;;;;14.02;5.93;;;;;;;12.45;63.94;99091.59;5020420;28;20036;-59
2021/10/10 05:27:23;;;;;;;14.98;5.78;;;;;;;12.45;63.68;99077.75;5015712;28;20438;-59
2021/10/10 05:29:48;;;;;;;16.90;6.50;;;;;;;12.54;63.86;99089.94;5017541;28;20032;-59
2021/10/10 05:32:14;;;;;;;14.40;6.07;;;;;;;12.54;63.55;99089.09;5004744;28;20037;-59
2021/10/10 05:34:39;;;;;;;10.45;5.53;;;;;;;12.60;63.67;99083.31;5027265;28;20427;-58
2021/10/10 05:37:05;;;;;;;13.75;5.50;;;;;;;12.17;64.14;99032.59;5019220;28;20034;-59
2021/10/10 05:39:30;;;;;;;11.88;6.07;;;;;;;12.57;64.15;99094.03;5027817;28;20175;-58
2021/10/10 05:41:55;;;;;;;12.48;5.53;;;;;;;12.60;64.44;99093.72;5026839;28;20028;-59
2021/10/10 05:44:22;;;;;;;15.35;6.32;;;;;;;12.47;63.82;99084.47;5027485;28;20045;-59
2021/10/10 05:46:47;;;;;;;14.82;6.32;;;;;;;12.43;64.71;99085.72;5008234;28;20060;-58
2021/10/10 05:49:13;;;;;;;13.73;6.38;;;;;;;12.54;64.20;99092.53;5019659;28;20061;-59
2021/10/10 05:51:38;;;;;;;12.68;5.88;;;;;;;12.57;63.80;99092.22;5004410;28;20496;-58
2021/10/10 05:54:05;;;;;;;14.65;6.10;;;;;;;12.54;64.35;99094.31;5026418;28;20071;-58
2021/10/10 05:56:33;;;;;;;12.82;6.07;;;;;;;12.62;63.18;99081.38;5008580;28;20037;-58
2021/10/10 05:59:04;;;;;;;13.75;5.65;;;;;;;12.55;63.53;99093.34;5031833;28;20056;-59
2021/10/10 06:01:29;;;;;;;11.05;5.72;;;;;;;12.49;63.85;99090.34;5005395;28;20030;-60
2021/10/10 06:03:55;;;;;;;13.88;5.88;;;;;;;12.57;63.87;99101.84;5020785;28;20033;-59
2021/10/10 06:06:20;;;;;;;12.98;6.50;;;;;;;12.42;64.22;99081.47;4999664;28;20041;-58
2021/10/10 06:08:45;;;;;;;12.65;6.00;;;;;;;12.56;63.52;99088.00;5023153;28;20029;-57
2021/10/10 06:11:11;;;;;;;15.52;5.97;;;;;;;12.68;63.39;99093.81;5016761;28;20546;-59
2021/10/10 06:13:38;;;;;;;15.43;6.25;;;;;;;12.74;63.41;99095.00;5007771;28;20029;-58
2021/10/10 06:16:04;;;;;;;14.85;6.75;;;;;;;12.61;64.25;99093.59;5024822;28;20408;-59
2021/10/10 06:18:30;;;;;;;16.30;5.90;;;;;;;12.61;63.86;99096.19;5020365;28;20484;-59
2021/10/10 06:20:55;;;;;;;12.70;6.30;;;;;;;12.65;63.55;99096.72;5023153;28;20034;-58
2021/10/10 06:23:21;;;;;;;13.70;6.13;;;;;;;12.60;63.72;99081.50;5014698;28;20026;-58
2021/10/10 06:25:46;;;;;;;13.35;6.20;;;;;;;12.69;63.73;99098.88;5024275;28;20041;-59
2021/10/10 06:28:12;;;;;;;11.90;5.93;;;;;;;12.69;63.07;99100.69;5021411;28;20025;-59
2021/10/10 06:30:37;;;;;;;13.23;6.20;;;;;;;12.64;63.77;99098.50;5037547;28;20372;-59
2021/10/10 06:33:03;;;;;;;12.38;6.28;;;;;;;12.41;63.90;99050.31;5028061;28;20029;-58
2021/10/10 06:35:28;;;;;;;13.55;6.07;;;;;;;12.48;64.21;99091.34;5020157;28;20076;-59
2021/10/10 06:37:53;;;;;;;13.48;5.72;;;;;;;12.59;64.06;99099.91;5024488;28;20037;-58
2021/10/10 06:40:19;;;;;;;14.15;6.20;;;;;;;12.60;64.61;99098.94;5003293;28;20457;-59
2021/10/10 06:42:44;;;;;;;10.57;5.95;;;;;;;12.37;64.00;99049.78;5025327;28;20029;-59
2021/10/10 06:45:10;;;;;;;12.60;5.80;;;;;;;12.72;64.35;99100.38;5016222;28;20448;-58
2021/10/10 06:47:36;;;;;;;13.25;6.28;;;;;;;12.42;63.98;99058.00;5004130;28;20034;-59
2021/10/10 06:50:03;;;;;;;11.57;6.18;;;;;;;12.68;63.80;99096.41;5024046;28;20040;-58
2021/10/10 06:52:29;;;;;;;13.32;6.35;;;;;;;12.74;64.19;99095.84;5019179;28;20033;-59
2021/10/10 06:54:54;;;;;;;12.45;5.75;;;;;;;12.78;63.93;99110.25;5004811;28;20495;-58
2021/10/10 06:57:20;;;;;;;13.60;6.35;;;;;;;12.86;63.66;99099.88;5028801;28;20044;-58
2021/10/10 06:59:45;;;;;;;10.30;5.72;;;;;;;12.69;64.45;99093.66;5029193;28;20060;-59
2021/10/10 07:02:11;;;;;;;14.93;6.32;;;;;;;12.49;64.60;99060.84;5002441;28;20030;-63
2021/10/10 07:04:37;;;;;;;13.52;6.40;;;;;;;12.68;65.08;99096.41;5017856;28;20029;-58
2021/10/10 07:07:02;;;;;;;13.52;7.13;;;;;;;12.74;64.92;99089.78;5020869;28;20072;-59
2021/10/10 07:09:28;;;;;;;13.95;6.97;;;;;;;12.86;64.69;99102.47;5023292;28;20072;-58
2021/10/10 07:11:53;;;;;;;14.70;6.68;;;;;;;12.84;64.78;99101.81;5027296;28;20706;-59
2021/10/10 07:14:19;;;;;;;12.75;7.00;;;;;;;12.81;64.22;99104.75;5018908;28;20457;-58
2021/10/10 07:16:44;;;;;;;15.63;6.30;;;;;;;12.98;63.98;99104.91;5009136;28;20033;-59
2021/10/10 07:19:10;;;;;;;14.88;6.88;;;;;;;13.04;63.21;99104.31;5006512;28;20044;-59
2021/10/10 07:21:44;;;;;;;15.90;6.65;;;;;;;12.98;64.17;99102.28;5010816;28;20030;-58
2021/10/10 07:26:36;;;;;;;12.65;5.85;;;;;;;12.96;63.80;99092.00;5013503;28;20033;-59
2021/10/10 07:29:03;;;;;;;16.55;5.93;;;;;;;12.84;63.92;99072.31;5017278;28;20048;-58
2021/10/10 07:31:29;;;;;;;12.75;5.75;;;;;;;13.16;62.85;99104.88;5029209;28;20022;-59
2021/10/10 07:33:54;;;;;;;13.55;6.55;;;;;;;13.08;62.74;99103.84;5021637;28;20412;-58
2021/10/10 07:36:19;;;;;;;13.95;6.35;;;;;;;13.06;62.50;99107.59;5010091;28;20393;-58
2021/10/10 07:38:45;;;;;;;18.02;6.38;;;;;;;13.07;62.28;99104.03;5018134;28;20082;-59
2021/10/10 07:41:11;;;;;;;13.75;6.75;;;;;;;13.17;62.32;99096.09;5011704;28;20034;-58
2021/10/10 07:43:38;;;;;;;13.93;6.20;;;;;;;13.07;63.47;99101.41;5032425;28;20722;-58
2021/10/10 07:46:09;;;;;;;13.68;5.95;;;;;;;13.04;61.57;99099.09;5013710;28;20491;-59
2021/10/10 07:48:34;;;;;;;14.88;6.30;;;;;;;13.11;59.24;99110.56;5020466;28;20873;-59
2021/10/10 07:51:00;;;;;;;11.52;5.80;;;;;;;13.15;60.24;99104.09;5001481;28;20108;-58
2021/10/10 07:53:25;;;;;;;13.52;6.45;;;;;;;13.11;59.27;99109.75;5021258;28;20037;-59
2021/10/10 07:55:51;;;;;;;14.90;6.13;;;;;;;13.14;58.05;99099.84;4999953;28;20646;-58
2021/10/10 07:58:16;;;;;;;12.45;5.63;;;;;;;13.05;58.51;99098.09;5018745;28;20116;-59
2021/10/10 08:00:42;;;;;;;14.30;5.78;;;;;;;13.23;58.11;99098.09;5016510;28;20026;-58
2021/10/10 08:03:07;;;;;;;10.95;5.65;;;;;;;13.24;57.02;99097.97;5012744;28;20041;-59
2021/10/10 08:05:41;;;;;;;16.08;6.10;;;;;;;13.17;57.31;99057.75;5020222;28;20107;-58
2021/10/10 08:08:07;;;;;;;17.50;6.20;;;;;;;13.40;57.04;99109.56;5016537;28;20030;-59
2021/10/10 08:10:33;;;;;;;12.93;6.00;;;;;;;13.36;56.86;99095.97;4999221;28;20472;-59
2021/10/10 08:12:59;;;;;;;13.80;6.28;;;;;;;13.47;56.32;99094.94;4937440;28;20107;-58
2021/10/10 08:15:24;;;;;;;11.90;5.72;;;;;;;13.44;56.93;99097.84;5016429;28;20029;-58
2021/10/10 08:17:49;;;;;;;13.35;6.00;;;;;;;13.44;56.45;99090.81;5019689;28;20147;-59
2021/10/10 08:20:15;;;;;;;11.77;5.40;;;;;;;13.40;56.23;99094.72;5023932;28;20021;-59
2021/10/10 08:22:41;;;;;;;14.93;6.13;;;;;;;13.36;55.66;99092.53;5015636;28;20025;-58
2021/10/10 08:25:11;;;;;;;13.65;5.80;;;;;;;13.36;56.26;99089.91;5003694;28;20124;-59
2021/10/10 08:27:38;;;;;;;13.05;5.60;;;;;;;13.10;56.23;99050.69;4999465;28;20128;-59
2021/10/10 08:30:05;;;;;;;16.63;6.25;;;;;;;13.52;56.07;99099.69;5003709;28;20116;-58
2021/10/10 08:32:31;;;;;;;13.55;6.00;;;;;;;13.50;56.52;99088.56;5019503;28;20133;-58
2021/10/10 08:34:56;;;;;;;11.82;5.75;;;;;;;13.52;56.27;99094.47;5020223;28;20033;-58
2021/10/10 08:37:22;;;;;;;13.13;6.60;;;;;;;13.46;56.96;99091.47;5000703;28;20041;-59
2021/10/10 08:39:47;;;;;;;13.82;6.07;;;;;;;13.44;56.28;99087.38;5012260;28;20084;-58
2021/10/10 08:42:14;;;;;;;15.02;6.68;;;;;;;13.46;56.11;99099.31;5010767;28;20026;-58
2021/10/10 08:44:46;;;;;;;15.93;6.63;;;;;;;13.52;56.36;99099.69;5014115;28;20132;-59
2021/10/10 08:47:17;;;;;;;14.45;6.38;;;;;;;13.49;55.98;99102.59;5014268;28;20036;-58
2021/10/10 08:49:43;;;;;;;13.90;6.00;;;;;;;13.48;55.66;99114.03;5004547;28;20033;-58
2021/10/10 08:52:10;;;;;;;15.77;6.32;;;;;;;13.62;55.49;99103.03;4999172;28;20072;-59
2021/10/10 08:54:35;;;;;;;15.70;6.45;;;;;;;13.63;55.18;99113.34;4997131;28;20033;-57
2021/10/10 08:57:02;;;;;;;11.90;5.85;;;;;;;13.59;55.43;99098.91;5018298;28;20041;-58
2021/10/10 08:59:29;;;;;;;12.30;5.88;;;;;;;13.49;55.69;99098.22;5014451;28;20029;-59
2021/10/10 09:01:55;;;;;;;17.63;6.28;;;;;;;13.57;55.14;99100.88;4996507;28;20033;-58
2021/10/10 09:04:21;;;;;;;13.85;5.95;;;;;;;13.38;55.17;99062.69;5001210;28;20036;-58
2021/10/10 09:06:46;;;;;;;13.10;5.55;;;;;;;13.61;55.95;99099.59;5007727;28;20504;-59
2021/10/10 09:09:31;;;;;;;15.35;6.47;;;;;;;13.56;55.58;99094.03;4995666;28;20029;-58
2021/10/10 09:12:02;;;;;;;10.00;6.25;;;;;;;13.62;56.45;99096.00;4994340;28;20033;-58
2021/10/10 09:14:28;;;;;;;16.20;6.10;;;;;;;13.65;55.54;99098.34;5015346;28;20025;-63
2021/10/10 09:17:08;;;;;;;10.30;5.68;;;;;;;13.67;55.80;99094.72;5020364;28;20043;-58
2021/10/10 09:19:34;;;;;;;15.05;5.97;;;;;;;13.57;55.70;99097.44;5009882;28;20048;-58
2021/10/10 09:22:06;;;;;;;12.85;6.72;;;;;;;13.64;55.93;99090.63;5001333;28;20021;-58
2021/10/10 09:24:32;;;;;;;18.35;6.65;;;;;;;13.61;56.25;99089.13;5022546;28;20853;-59
2021/10/10 09:26:57;;;;;;;13.38;6.47;;;;;;;13.41;55.94;99051.94;5020798;28;20112;-59
2021/10/10 09:29:44;;;;;;;12.68;6.30;;;;;;;13.68;56.48;99088.53;5014926;28;20415;-58
2021/10/10 09:32:17;;;;;;;13.15;6.32;;;;;;;13.57;56.50;99084.38;5030140;28;20033;-59
2021/10/10 09:34:44;;;;;;;17.25;6.70;;;;;;;13.64;56.23;99080.19;5009205;28;20051;-59
2021/10/10 09:37:34;;;;;;;13.23;6.28;;;;;;;13.49;57.28;99072.09;5002846;28;20025;-59
2021/10/10 09:40:23;;;;;;;15.45;6.50;;;;;;;13.72;56.47;99080.22;5016028;28;20672;-58
2021/10/10 09:42:51;;;;;;;13.88;7.20;;;;;;;13.44;57.61;99049.00;5014320;28;20164;-59
2021/10/10 09:45:24;;;;;;;13.50;6.65;;;;;;;13.80;57.27;99079.47;5000594;28;20191;-58
2021/10/10 09:47:55;;;;;;;17.17;7.25;;;;;;;13.49;57.10;99051.19;5007602;28;20061;-59
2021/10/10 09:50:22;;;;;;;12.85;7.05;;;;;;;13.76;57.23;99081.59;5014171;28;20516;-58
2021/10/10 09:53:01;;;;;;;16.40;7.05;;;;;;;13.79;57.21;99067.38;5013772;28;20041;-59
2021/10/10 09:55:28;;;;;;;17.17;7.40;;;;;;;13.92;56.45;99072.19;5015316;28;20048;-58
2021/10/10 09:57:54;;;;;;;14.02;7.47;;;;;;;13.88;56.63;99057.78;4998621;28;21020;-59
2021/10/10 10:00:25;;;;;;;14.75;6.90;;;;;;;13.83;57.36;99061.66;5007846;28;20128;-58
2021/10/10 10:02:51;;;;;;;13.70;7.50;;;;;;;13.87;56.69;99064.78;5008955;28;20116;-58
2021/10/10 10:05:27;;;;;;;19.08;7.63;;;;;;;13.88;56.90;99053.38;5009295;28;20030;-58
2021/10/10 10:07:54;;;;;;;18.98;8.30;;;;;;;13.84;57.62;99060.72;5006811;28;20026;-58
2021/10/10 10:10:20;;;;;;;16.73;7.80;;;;;;;13.61;57.24;99013.38;5010760;28;20413;-58
2021/10/10 10:12:47;;;;;;;15.77;7.93;;;;;;;13.72;56.55;99025.34;5004653;28;20033;-58
2021/10/10 10:15:13;;;;;;;14.20;7.47;;;;;;;13.89;57.36;99044.56;5014321;28;20028;-58
2021/10/10 10:17:39;;;;;;;18.15;7.82;;;;;;;13.83;57.05;99046.00;5020948;28;20022;-59
2021/10/10 10:20:05;;;;;;;19.92;8.50;;;;;;;13.72;57.40;99011.47;5015064;28;20037;-59
2021/10/10 10:22:33;;;;;;;17.52;7.40;;;;;;;13.88;56.65;99048.16;4985393;28;21071;-59
2021/10/10 10:24:59;;;;;;;14.48;7.25;;;;;;;13.94;56.77;99041.47;4996002;28;20898;-58
2021/10/10 10:27:24;;;;;;;17.65;8.30;;;;;;;13.88;55.87;99042.94;5008741;28;20065;-58
2021/10/10 10:29:53;;;;;;;18.27;8.13;;;;;;;13.63;57.00;98992.31;5016121;28;20056;-58
2021/10/10 10:32:18;;;;;;;16.45;7.53;;;;;;;14.04;56.68;99044.81;5012841;28;20025;-58
2021/10/10 10:35:01;;;;;;;16.67;8.63;;;;;;;14.17;56.49;99042.56;5010145;28;20051;-58
2021/10/10 10:37:41;;;;;;;17.17;8.20;;;;;;;14.21;56.57;99041.28;5034404;28;20025;-59
2021/10/10 10:40:16;;;;;;;14.02;7.45;;;;;;;14.17;56.23;99037.34;5014472;28;20033;-58
2021/10/10 10:42:48;;;;;;;16.35;8.02;;;;;;;14.33;55.70;99031.34;5025911;28;20036;-58
2021/10/10 10:45:25;;;;;;;12.90;7.85;;;;;;;14.41;55.66;99030.56;5029505;28;20112;-58
2021/10/10 10:47:56;;;;;;;14.27;7.88;;;;;;;14.42;55.46;99025.19;5023268;28;20068;-59
2021/10/10 10:50:44;;;;;;;18.73;8.38;;;;;;;14.13;55.84;99022.13;5007805;28;20033;-58
2021/10/10 10:53:13;;;;;;;13.48;7.80;;;;;;;13.97;55.46;98997.53;5016275;28;20499;-58
2021/10/10 10:55:44;;;;;;;13.18;7.47;;;;;;;14.06;55.67;98987.13;5007445;28;20392;-59
2021/10/10 10:58:14;;;;;;;17.92;8.00;;;;;;;14.35;55.88;99025.97;5022413;28;20034;-59
2021/10/10 11:00:43;;;;;;;12.88;7.15;;;;;;;14.25;55.76;99018.25;5033906;28;20040;-58
2021/10/10 11:03:11;;;;;;;15.07;7.70;;;;;;;14.02;55.97;98984.81;5029006;28;20022;-58
2021/10/10 11:05:57;;;;;;;15.98;7.38;;;;;;;14.25;54.80;99009.59;5038323;28;21479;-59
2021/10/10 11:08:22;;;;;;;16.13;8.00;;;;;;;14.37;55.48;99014.38;5018536;28;20129;-58
2021/10/10 11:10:59;;;;;;;14.82;7.68;;;;;;;14.39;55.21;99014.22;5029023;28;20480;-58
2021/10/10 11:13:27;;;;;;;14.45;7.22;;;;;;;14.22;55.44;98966.28;5024016;28;20030;-58
2021/10/10 11:15:58;;;;;;;14.27;7.70;;;;;;;14.57;54.71;99007.09;5026026;28;20581;-58
2021/10/10 11:18:26;;;;;;;16.08;7.70;;;;;;;14.38;54.94;98961.09;5013040;28;20087;-58
2021/10/10 11:20:53;;;;;;;13.27;7.70;;;;;;;14.58;54.36;98998.25;5010336;28;20049;-58
2021/10/10 11:23:20;;;;;;;15.40;7.45;;;;;;;14.29;55.11;98948.97;5012542;28;20113;-59
2021/10/10 11:25:48;;;;;;;17.05;8.00;;;;;;;14.41;53.14;98989.50;5006659;28;20166;-58
2021/10/10 11:28:15;;;;;;;12.93;7.57;;;;;;;14.41;54.29;98992.13;5017779;28;20029;-58
2021/10/10 11:30:40;;;;;;;14.82;7.80;;;;;;;14.42;54.93;98983.31;5019514;28;20025;-58